createdAt,value
2023-01-13T00:00:07.461Z,10.88
2023-01-13T00:01:07.437Z,10.88
2023-01-13T00:02:07.476Z,10.88
2023-01-13T00:03:07.399Z,10.93
2023-01-13T00:04:07.400Z,10.94
2023-01-13T00:05:07.472Z,10.95
2023-01-13T00:06:07.365Z,10.98
2023-01-13T00:07:07.343Z,10.99
2023-01-13T00:08:07.328Z,11.01
2023-01-13T00:09:07.325Z,10.99
2023-01-13T00:10:07.316Z,10.99
2023-01-13T00:11:07.299Z,10.99
2023-01-13T00:12:07.278Z,10.98
2023-01-13T00:13:07.267Z,10.95
2023-01-13T00:14:07.267Z,10.98
2023-01-13T00:15:07.228Z,10.95
2023-01-13T00:16:07.283Z,10.95
2023-01-13T00:17:07.246Z,10.93
2023-01-13T00:18:07.268Z,10.93
2023-01-13T00:19:07.208Z,10.90
2023-01-13T00:20:07.188Z,10.90
2023-01-13T00:21:07.170Z,10.90
2023-01-13T00:22:07.190Z,10.90
2023-01-13T00:23:07.147Z,10.90
2023-01-13T00:24:07.137Z,10.90
2023-01-13T00:25:07.117Z,10.88
2023-01-13T00:26:07.107Z,10.87
2023-01-13T00:27:07.129Z,10.86
2023-01-13T00:28:07.074Z,10.86
2023-01-13T00:29:07.082Z,10.84
2023-01-13T00:30:07.293Z,10.87
2023-01-13T00:31:07.190Z,10.87
2023-01-13T00:32:07.058Z,10.86
2023-01-13T00:33:07.002Z,10.86
2023-01-13T00:34:06.983Z,10.83
2023-01-13T00:35:07.004Z,10.84
2023-01-13T00:36:06.972Z,10.84
2023-01-13T00:37:06.974Z,10.83
2023-01-13T00:38:06.953Z,10.80
2023-01-13T00:39:06.928Z,10.80
2023-01-13T00:40:06.923Z,10.78
2023-01-13T00:41:06.920Z,10.76
2023-01-13T00:42:06.924Z,10.73
2023-01-13T00:43:06.900Z,10.70
2023-01-13T00:44:06.884Z,10.69
2023-01-13T00:45:06.875Z,10.72
2023-01-13T00:46:07.616Z,10.70
2023-01-13T00:47:06.843Z,10.68
2023-01-13T00:48:06.858Z,10.66
2023-01-13T00:49:06.991Z,10.66
2023-01-13T00:50:06.799Z,10.66
2023-01-13T00:51:06.784Z,10.65
2023-01-13T00:52:06.987Z,10.63
2023-01-13T00:53:06.782Z,10.63
2023-01-13T00:54:06.738Z,10.62
2023-01-13T00:55:06.748Z,10.62
2023-01-13T00:56:06.708Z,10.60
2023-01-13T00:57:06.741Z,10.60
2023-01-13T00:58:06.701Z,10.60
2023-01-13T00:59:06.669Z,10.58
2023-01-13T01:00:06.677Z,10.57
2023-01-13T01:01:07.053Z,10.58
2023-01-13T01:02:06.761Z,10.55
2023-01-13T01:03:06.640Z,10.54
2023-01-13T01:04:06.734Z,10.54
2023-01-13T01:05:06.631Z,10.55
2023-01-13T01:06:07.330Z,10.55
2023-01-13T01:07:06.611Z,10.54
2023-01-13T01:08:06.617Z,10.55
2023-01-13T01:09:06.565Z,10.55
2023-01-13T01:10:06.549Z,10.54
2023-01-13T01:11:06.551Z,10.52
2023-01-13T01:12:06.560Z,10.54
2023-01-13T01:13:06.506Z,10.54
2023-01-13T01:14:06.491Z,10.54
2023-01-13T01:15:06.509Z,10.54
2023-01-13T01:16:06.517Z,10.54
2023-01-13T01:17:06.455Z,10.52
2023-01-13T01:18:06.443Z,10.52
2023-01-13T01:19:06.450Z,10.54
2023-01-13T01:20:06.427Z,10.54
2023-01-13T01:21:06.387Z,10.52
2023-01-13T01:22:06.398Z,10.52
2023-01-13T01:23:06.388Z,10.51
2023-01-13T01:24:06.368Z,10.51
2023-01-13T01:25:06.345Z,10.55
2023-01-13T01:26:06.315Z,10.58
2023-01-13T01:27:06.343Z,10.62
2023-01-13T01:28:06.339Z,10.63
2023-01-13T01:29:06.323Z,10.66
2023-01-13T01:30:06.309Z,10.68
2023-01-13T01:31:06.319Z,10.66
2023-01-13T01:32:06.283Z,10.68
2023-01-13T01:33:06.252Z,10.69
2023-01-13T01:34:06.241Z,10.72
2023-01-13T01:35:06.204Z,10.72
2023-01-13T01:36:06.207Z,10.70
2023-01-13T01:37:06.223Z,10.62
2023-01-13T01:38:06.196Z,10.63
2023-01-13T01:39:06.186Z,10.62
2023-01-13T01:40:06.184Z,10.60
2023-01-13T01:41:06.143Z,10.54
2023-01-13T01:42:06.151Z,10.52
2023-01-13T01:43:06.126Z,10.52
2023-01-13T01:44:06.125Z,10.46
2023-01-13T01:45:06.116Z,10.42
2023-01-13T01:46:06.090Z,10.34
2023-01-13T01:47:06.140Z,10.32
2023-01-13T01:48:06.061Z,10.28
2023-01-13T01:49:06.028Z,10.24
2023-01-13T01:50:06.033Z,10.17
2023-01-13T01:51:06.027Z,10.13
2023-01-13T01:52:06.010Z,10.10
2023-01-13T01:53:06.011Z,10.06
2023-01-13T01:54:06.019Z,10.01
2023-01-13T01:55:05.990Z,10.02
2023-01-13T01:56:05.948Z,10.01
2023-01-13T01:57:05.939Z,9.98
2023-01-13T01:58:05.944Z,9.98
2023-01-13T01:59:05.916Z,9.93
2023-01-13T02:00:05.923Z,9.89
2023-01-13T02:01:05.957Z,9.83
2023-01-13T02:02:06.029Z,9.78
2023-01-13T02:03:05.864Z,9.74
2023-01-13T02:04:05.846Z,9.65
2023-01-13T02:05:05.854Z,9.62
2023-01-13T02:06:05.833Z,9.59
2023-01-13T02:07:05.853Z,9.56
2023-01-13T02:08:05.835Z,9.55
2023-01-13T02:09:05.784Z,9.52
2023-01-13T02:10:05.776Z,9.52
2023-01-13T02:11:05.763Z,9.49
2023-01-13T02:12:05.760Z,9.48
2023-01-13T02:13:05.729Z,9.48
2023-01-13T02:14:06.477Z,9.44
2023-01-13T02:15:05.714Z,9.42
2023-01-13T02:16:05.828Z,9.41
2023-01-13T02:17:05.707Z,9.41
2023-01-13T02:18:05.685Z,9.41
2023-01-13T02:19:05.660Z,9.40
2023-01-13T02:20:05.651Z,9.38
2023-01-13T02:21:05.634Z,9.41
2023-01-13T02:22:05.654Z,9.38
2023-01-13T02:23:05.589Z,9.37
2023-01-13T02:24:05.596Z,9.35
2023-01-13T02:25:05.582Z,9.37
2023-01-13T02:26:05.571Z,9.35
2023-01-13T02:27:05.549Z,9.35
2023-01-13T02:28:05.589Z,9.34
2023-01-13T02:29:05.584Z,9.34
2023-01-13T02:30:05.526Z,9.34
2023-01-13T02:31:05.520Z,9.34
2023-01-13T02:32:05.490Z,9.34
2023-01-13T02:33:05.498Z,9.35
2023-01-13T02:34:05.469Z,9.37
2023-01-13T02:35:05.470Z,9.32
2023-01-13T02:36:05.429Z,9.32
2023-01-13T02:37:05.445Z,9.34
2023-01-13T02:38:05.424Z,9.37
2023-01-13T02:39:05.428Z,9.37
2023-01-13T02:40:05.398Z,9.37
2023-01-13T02:41:05.399Z,9.35
2023-01-13T02:42:05.344Z,9.35
2023-01-13T02:43:05.357Z,9.34
2023-01-13T02:44:05.353Z,9.32
2023-01-13T02:45:05.329Z,9.32
2023-01-13T02:46:05.392Z,9.30
2023-01-13T02:47:05.294Z,9.32
2023-01-13T02:48:05.315Z,9.32
2023-01-13T02:49:05.294Z,9.31
2023-01-13T02:50:05.271Z,9.34
2023-01-13T02:51:05.253Z,9.34
2023-01-13T02:52:05.227Z,9.35
2023-01-13T02:53:05.220Z,9.35
2023-01-13T02:54:05.201Z,9.35
2023-01-13T02:55:05.240Z,9.35
2023-01-13T02:56:05.170Z,9.37
2023-01-13T02:57:05.173Z,9.35
2023-01-13T02:58:05.205Z,9.34
2023-01-13T02:59:05.150Z,9.31
2023-01-13T03:00:05.155Z,9.31
2023-01-13T03:01:05.276Z,9.30
2023-01-13T03:02:05.326Z,9.26
2023-01-13T03:03:05.119Z,9.24
2023-01-13T03:04:05.092Z,9.23
2023-01-13T03:05:05.112Z,9.23
2023-01-13T03:06:05.082Z,9.23
2023-01-13T03:07:05.068Z,9.23
2023-01-13T03:08:05.130Z,9.22
2023-01-13T03:09:05.036Z,9.23
2023-01-13T03:10:05.119Z,9.23
2023-01-13T03:11:05.011Z,9.24
2023-01-13T03:12:05.007Z,9.24
2023-01-13T03:13:04.964Z,9.26
2023-01-13T03:14:04.999Z,9.26
2023-01-13T03:15:04.968Z,9.27
2023-01-13T03:16:04.984Z,9.26
2023-01-13T03:17:04.942Z,9.26
2023-01-13T03:18:05.015Z,9.26
2023-01-13T03:19:04.895Z,9.26
2023-01-13T03:20:04.926Z,9.27
2023-01-13T03:21:04.848Z,9.27
2023-01-13T03:22:04.878Z,9.27
2023-01-13T03:23:04.863Z,9.27
2023-01-13T03:24:04.834Z,9.27
2023-01-13T03:25:04.804Z,9.26
2023-01-13T03:26:04.843Z,9.26
2023-01-13T03:27:04.827Z,9.26
2023-01-13T03:28:04.817Z,9.27
2023-01-13T03:29:04.792Z,9.26
2023-01-13T03:30:04.759Z,9.26
2023-01-13T03:31:04.850Z,9.24
2023-01-13T03:32:04.744Z,9.23
2023-01-13T03:33:04.734Z,9.22
2023-01-13T03:34:04.708Z,9.22
2023-01-13T03:35:04.685Z,9.22
2023-01-13T03:36:04.719Z,9.17
2023-01-13T03:37:04.660Z,9.16
2023-01-13T03:38:04.681Z,9.15
2023-01-13T03:39:04.613Z,9.12
2023-01-13T03:40:04.642Z,9.08
2023-01-13T03:41:04.598Z,9.04
2023-01-13T03:42:04.636Z,9.01
2023-01-13T03:43:12.175Z,9.00
2023-01-13T03:44:04.605Z,9.01
2023-01-13T03:45:04.565Z,9.01
2023-01-13T03:46:04.652Z,9.01
2023-01-13T03:47:04.520Z,9.01
2023-01-13T03:48:04.537Z,9.00
2023-01-13T03:49:04.496Z,9.01
2023-01-13T03:50:04.523Z,9.03
2023-01-13T03:51:04.469Z,9.04
2023-01-13T03:52:04.493Z,9.04
2023-01-13T03:53:04.465Z,9.06
2023-01-13T03:54:04.466Z,9.06
2023-01-13T03:55:04.407Z,9.08
2023-01-13T03:56:04.412Z,9.13
2023-01-13T03:57:04.431Z,9.13
2023-01-13T03:58:04.393Z,9.15
2023-01-13T03:59:04.351Z,9.16
2023-01-13T04:00:04.357Z,9.17
2023-01-13T04:01:04.454Z,9.16
2023-01-13T04:02:04.528Z,9.15
2023-01-13T04:03:04.371Z,9.15
2023-01-13T04:04:04.356Z,9.13
2023-01-13T04:05:04.321Z,9.12
2023-01-13T04:06:04.297Z,9.12
2023-01-13T04:07:04.268Z,9.12
2023-01-13T04:08:04.294Z,9.08
2023-01-13T04:09:04.242Z,9.08
2023-01-13T04:10:04.257Z,9.10
2023-01-13T04:11:04.257Z,9.08
2023-01-13T04:12:04.207Z,9.04
2023-01-13T04:13:04.304Z,9.04
2023-01-13T04:14:04.190Z,9.03
2023-01-13T04:15:04.152Z,9.00
2023-01-13T04:16:04.178Z,9.00
2023-01-13T04:17:04.130Z,8.98
2023-01-13T04:18:04.131Z,8.97
2023-01-13T04:19:04.114Z,8.97
2023-01-13T04:20:04.124Z,8.96
2023-01-13T04:21:04.113Z,8.93
2023-01-13T04:22:04.089Z,8.91
2023-01-13T04:23:04.052Z,8.89
2023-01-13T04:24:04.060Z,8.88
2023-01-13T04:25:04.019Z,8.88
2023-01-13T04:26:04.060Z,8.88
2023-01-13T04:27:04.059Z,8.86
2023-01-13T04:28:04.068Z,8.85
2023-01-13T04:29:03.990Z,8.83
2023-01-13T04:30:03.998Z,8.85
2023-01-13T04:31:03.996Z,8.83
2023-01-13T04:32:03.945Z,8.82
2023-01-13T04:33:03.956Z,8.79
2023-01-13T04:34:03.951Z,8.78
2023-01-13T04:35:03.935Z,8.78
2023-01-13T04:36:03.955Z,8.78
2023-01-13T04:37:03.871Z,8.78
2023-01-13T04:38:03.938Z,8.76
2023-01-13T04:39:03.851Z,8.75
2023-01-13T04:40:03.876Z,8.75
2023-01-13T04:41:03.845Z,8.73
2023-01-13T04:42:07.808Z,8.71
2023-01-13T04:43:03.857Z,8.70
2023-01-13T04:44:03.805Z,8.68
2023-01-13T04:45:03.767Z,8.64
2023-01-13T04:46:03.913Z,8.64
2023-01-13T04:47:03.783Z,8.64
2023-01-13T04:48:03.734Z,8.65
2023-01-13T04:49:03.704Z,8.64
2023-01-13T04:50:03.784Z,8.64
2023-01-13T04:51:03.676Z,8.63
2023-01-13T04:52:03.687Z,8.63
2023-01-13T04:53:03.697Z,8.61
2023-01-13T04:54:10.039Z,8.60
2023-01-13T04:55:03.652Z,8.63
2023-01-13T04:56:03.694Z,8.64
2023-01-13T04:57:03.632Z,8.64
2023-01-13T04:58:03.637Z,8.65
2023-01-13T04:59:03.612Z,8.67
2023-01-13T05:00:03.606Z,8.70
2023-01-13T05:01:03.667Z,8.71
2023-01-13T05:02:03.600Z,8.70
2023-01-13T05:03:03.541Z,8.71
2023-01-13T05:04:03.605Z,8.73
2023-01-13T05:05:03.581Z,8.73
2023-01-13T05:06:03.542Z,8.71
2023-01-13T05:07:03.559Z,8.73
2023-01-13T05:08:03.508Z,8.76
2023-01-13T05:09:03.466Z,8.76
2023-01-13T05:10:03.441Z,8.79
2023-01-13T05:11:03.471Z,8.80
2023-01-13T05:12:03.454Z,8.80
2023-01-13T05:13:03.443Z,8.80
2023-01-13T05:14:03.403Z,8.80
2023-01-13T05:15:03.419Z,8.82
2023-01-13T05:16:06.336Z,8.80
2023-01-13T05:17:03.392Z,8.80
2023-01-13T05:18:03.399Z,8.80
2023-01-13T05:19:03.348Z,8.80
2023-01-13T05:20:03.363Z,8.80
2023-01-13T05:21:03.292Z,8.79
2023-01-13T05:22:03.304Z,8.82
2023-01-13T05:23:03.292Z,8.80
2023-01-13T05:24:03.305Z,8.80
2023-01-13T05:25:03.251Z,8.79
2023-01-13T05:26:03.265Z,8.78
2023-01-13T05:27:03.244Z,8.76
2023-01-13T05:28:03.289Z,8.73
2023-01-13T05:29:03.224Z,8.70
2023-01-13T05:30:03.210Z,8.70
2023-01-13T05:31:03.234Z,8.70
2023-01-13T05:32:03.181Z,8.68
2023-01-13T05:33:03.184Z,8.67
2023-01-13T05:34:03.139Z,8.68
2023-01-13T05:35:03.146Z,8.68
2023-01-13T05:36:03.127Z,8.70
2023-01-13T05:37:03.088Z,8.70
2023-01-13T05:38:03.119Z,8.75
2023-01-13T05:39:03.087Z,8.75
2023-01-13T05:40:03.078Z,8.76
2023-01-13T05:41:03.067Z,8.79
2023-01-13T05:42:03.042Z,8.83
2023-01-13T05:43:03.033Z,8.85
2023-01-13T05:44:03.024Z,8.88
2023-01-13T05:45:03.004Z,8.89
2023-01-13T05:46:03.146Z,8.89
2023-01-13T05:47:02.994Z,8.91
2023-01-13T05:48:03.015Z,8.93
2023-01-13T05:49:02.967Z,8.91
2023-01-13T05:50:02.977Z,8.91
2023-01-13T05:51:02.935Z,8.93
2023-01-13T05:52:02.941Z,8.94
2023-01-13T05:53:02.929Z,8.93
2023-01-13T05:54:02.895Z,8.93
2023-01-13T05:55:02.865Z,8.93
2023-01-13T05:56:02.883Z,8.89
2023-01-13T05:57:02.872Z,8.91
2023-01-13T05:58:02.867Z,8.86
2023-01-13T05:59:02.837Z,8.82
2023-01-13T06:00:02.842Z,8.80
2023-01-13T06:01:02.897Z,8.80
2023-01-13T06:02:02.851Z,8.79
2023-01-13T06:03:02.837Z,8.79
2023-01-13T06:04:02.799Z,8.78
2023-01-13T06:05:02.755Z,8.76
2023-01-13T06:06:02.758Z,8.76
2023-01-13T06:07:02.765Z,8.75
2023-01-13T06:08:02.693Z,8.75
2023-01-13T06:09:02.692Z,8.76
2023-01-13T06:10:02.671Z,8.76
2023-01-13T06:11:02.733Z,8.79
2023-01-13T06:12:02.643Z,8.80
2023-01-13T06:13:02.690Z,8.82
2023-01-13T06:14:02.645Z,8.80
2023-01-13T06:15:02.640Z,8.82
2023-01-13T06:16:02.633Z,8.83
2023-01-13T06:17:02.599Z,8.83
2023-01-13T06:18:02.614Z,8.86
2023-01-13T06:19:02.584Z,8.85
2023-01-13T06:20:02.570Z,8.89
2023-01-13T06:21:02.566Z,8.89
2023-01-13T06:22:02.520Z,8.88
2023-01-13T06:23:02.510Z,8.89
2023-01-13T06:24:02.523Z,8.89
2023-01-13T06:25:02.529Z,8.88
2023-01-13T06:26:02.515Z,8.88
2023-01-13T06:27:02.500Z,8.89
2023-01-13T06:28:02.467Z,8.94
2023-01-13T06:29:02.458Z,8.96
2023-01-13T06:30:02.422Z,8.94
2023-01-13T06:31:02.455Z,8.94
2023-01-13T06:32:02.446Z,8.96
2023-01-13T06:33:02.411Z,8.94
2023-01-13T06:34:02.404Z,8.96
2023-01-13T06:35:04.184Z,8.97
2023-01-13T06:36:02.341Z,8.98
2023-01-13T06:37:02.368Z,9.01
2023-01-13T06:38:02.320Z,9.03
2023-01-13T06:39:02.357Z,9.00
2023-01-13T06:40:02.296Z,8.98
2023-01-13T06:41:02.311Z,9.00
2023-01-13T06:42:02.302Z,9.00
2023-01-13T06:43:02.250Z,9.00
2023-01-13T06:44:02.278Z,8.96
2023-01-13T06:45:02.228Z,8.94
2023-01-13T06:46:02.226Z,8.89
2023-01-13T06:47:02.306Z,8.88
2023-01-13T06:48:02.230Z,8.89
2023-01-13T06:49:02.223Z,8.91
2023-01-13T06:50:02.200Z,8.88
2023-01-13T06:51:02.185Z,8.88
2023-01-13T06:52:02.178Z,8.88
2023-01-13T06:53:02.131Z,8.89
2023-01-13T06:54:02.135Z,8.88
2023-01-13T06:55:02.144Z,8.91
2023-01-13T06:56:02.128Z,8.89
2023-01-13T06:57:02.082Z,8.88
2023-01-13T06:58:02.092Z,8.88
2023-01-13T06:59:02.084Z,8.91
2023-01-13T07:00:02.023Z,8.93
2023-01-13T07:01:02.158Z,8.93
2023-01-13T07:02:02.207Z,8.91
2023-01-13T07:03:02.017Z,8.88
2023-01-13T07:04:02.048Z,8.88
2023-01-13T07:05:02.023Z,8.88
2023-01-13T07:06:02.023Z,8.88
2023-01-13T07:07:01.970Z,8.89
2023-01-13T07:08:01.944Z,8.94
2023-01-13T07:09:02.996Z,8.94
2023-01-13T07:10:01.908Z,8.94
2023-01-13T07:11:01.924Z,8.91
2023-01-13T07:12:01.901Z,8.89
2023-01-13T07:13:01.905Z,8.93
2023-01-13T07:14:01.875Z,8.93
2023-01-13T07:15:01.882Z,8.94
2023-01-13T07:16:01.937Z,8.91
2023-01-13T07:17:01.856Z,8.89
2023-01-13T07:18:01.794Z,8.88
2023-01-13T07:19:01.805Z,8.83
2023-01-13T07:20:01.789Z,8.82
2023-01-13T07:21:01.765Z,8.80
2023-01-13T07:22:01.751Z,8.78
2023-01-13T07:23:01.768Z,8.76
2023-01-13T07:24:01.732Z,8.75
2023-01-13T07:25:01.755Z,8.76
2023-01-13T07:26:01.724Z,8.76
2023-01-13T07:27:01.710Z,8.78
2023-01-13T07:28:01.662Z,8.79
2023-01-13T07:29:01.727Z,8.79
2023-01-13T07:30:01.643Z,8.78
2023-01-13T07:31:01.658Z,8.75
2023-01-13T07:32:01.736Z,8.71
2023-01-13T07:33:01.613Z,8.68
2023-01-13T07:34:01.626Z,8.68
2023-01-13T07:35:01.624Z,8.65
2023-01-13T07:36:01.595Z,8.67
2023-01-13T07:37:01.607Z,8.67
2023-01-13T07:38:01.559Z,8.67
2023-01-13T07:39:01.561Z,8.67
2023-01-13T07:40:01.547Z,8.67
2023-01-13T07:41:01.541Z,8.67
2023-01-13T07:42:01.573Z,8.70
2023-01-13T07:43:01.487Z,8.71
2023-01-13T07:44:01.459Z,8.70
2023-01-13T07:45:01.530Z,8.68
2023-01-13T07:46:01.503Z,8.67
2023-01-13T07:47:01.478Z,8.64
2023-01-13T07:48:01.413Z,8.64
2023-01-13T07:49:01.447Z,8.61
2023-01-13T07:50:01.426Z,8.60
2023-01-13T07:51:01.387Z,8.63
2023-01-13T07:52:01.380Z,8.61
2023-01-13T07:53:01.357Z,8.60
2023-01-13T07:54:01.354Z,8.58
2023-01-13T07:55:01.347Z,8.57
2023-01-13T07:56:01.402Z,8.55
2023-01-13T07:57:01.320Z,8.55
2023-01-13T07:58:03.035Z,8.57
2023-01-13T07:59:01.314Z,8.55
2023-01-13T08:00:01.288Z,8.55
2023-01-13T08:01:01.303Z,8.55
2023-01-13T08:02:01.436Z,8.52
2023-01-13T08:03:01.263Z,8.50
2023-01-13T08:04:01.205Z,8.52
2023-01-13T08:05:01.212Z,8.52
2023-01-13T08:06:01.244Z,8.52
2023-01-13T08:07:01.188Z,8.54
2023-01-13T08:08:01.169Z,8.52
2023-01-13T08:09:01.173Z,8.52
2023-01-13T08:10:01.175Z,8.54
2023-01-13T08:11:01.136Z,8.49
2023-01-13T08:12:01.112Z,8.50
2023-01-13T08:13:01.123Z,8.50
2023-01-13T08:14:01.112Z,8.49
2023-01-13T08:15:01.125Z,8.50
2023-01-13T08:16:01.076Z,8.49
2023-01-13T08:17:01.071Z,8.50
2023-01-13T08:18:01.055Z,8.52
2023-01-13T08:19:01.037Z,8.54
2023-01-13T08:20:01.077Z,8.52
2023-01-13T08:21:01.007Z,8.54
2023-01-13T08:22:00.976Z,8.54
2023-01-13T08:23:00.968Z,8.55
2023-01-13T08:24:00.978Z,8.57
2023-01-13T08:25:00.989Z,8.55
2023-01-13T08:26:00.956Z,8.57
2023-01-13T08:27:00.936Z,8.57
2023-01-13T08:28:00.965Z,8.60
2023-01-13T08:29:00.920Z,8.64
2023-01-13T08:30:00.878Z,8.68
2023-01-13T08:31:01.013Z,8.70
2023-01-13T08:32:00.864Z,8.71
2023-01-13T08:33:00.865Z,8.75
2023-01-13T08:34:00.839Z,8.79
2023-01-13T08:35:00.857Z,8.82
2023-01-13T08:36:00.819Z,8.83
2023-01-13T08:37:00.816Z,8.85
2023-01-13T08:38:00.798Z,8.86
2023-01-13T08:39:00.798Z,8.88
2023-01-13T08:40:00.778Z,8.91
2023-01-13T08:41:00.782Z,8.94
2023-01-13T08:42:00.771Z,8.94
2023-01-13T08:43:00.775Z,8.96
2023-01-13T08:44:00.694Z,8.97
2023-01-13T08:45:00.725Z,8.98
2023-01-13T08:46:00.804Z,9.00
2023-01-13T08:47:00.660Z,9.03
2023-01-13T08:48:00.636Z,9.04
2023-01-13T08:49:00.667Z,9.06
2023-01-13T08:50:00.654Z,9.04
2023-01-13T08:51:00.644Z,9.06
2023-01-13T08:52:00.637Z,9.06
2023-01-13T08:53:00.625Z,9.08
2023-01-13T08:54:00.594Z,9.10
2023-01-13T08:55:00.603Z,9.15
2023-01-13T08:56:00.562Z,9.17
2023-01-13T08:57:00.618Z,9.19
2023-01-13T08:58:14.491Z,9.16
2023-01-13T08:59:01.517Z,9.19
2023-01-13T09:00:00.523Z,9.22
2023-01-13T09:01:00.642Z,9.19
2023-01-13T09:02:00.647Z,9.19
2023-01-13T09:03:00.491Z,9.17
2023-01-13T09:04:00.527Z,9.16
2023-01-13T09:05:00.471Z,9.17
2023-01-13T09:06:00.435Z,9.16
2023-01-13T09:07:00.421Z,9.17
2023-01-13T09:08:00.396Z,9.15
2023-01-13T09:09:00.383Z,9.15
2023-01-13T09:10:00.428Z,9.15
2023-01-13T09:11:00.358Z,9.16
2023-01-13T09:12:00.362Z,9.19
2023-01-13T09:13:00.359Z,9.20
2023-01-13T09:14:03.153Z,9.19
2023-01-13T09:15:00.323Z,9.20
2023-01-13T09:16:00.394Z,9.22
2023-01-13T09:17:00.280Z,9.23
2023-01-13T09:18:00.304Z,9.23
2023-01-13T09:19:00.255Z,9.23
2023-01-13T09:20:00.272Z,9.22
2023-01-13T09:21:00.273Z,9.23
2023-01-13T09:22:00.238Z,9.23
2023-01-13T09:23:00.242Z,9.26
2023-01-13T09:24:00.213Z,9.30
2023-01-13T09:25:00.218Z,9.31
2023-01-13T09:26:00.341Z,9.30
2023-01-13T09:27:00.202Z,9.31
2023-01-13T09:28:00.153Z,9.31
2023-01-13T09:29:00.548Z,9.34
2023-01-13T09:30:00.159Z,9.35
2023-01-13T09:31:00.186Z,9.37
2023-01-13T09:32:00.100Z,9.38
2023-01-13T09:33:00.120Z,9.40
2023-01-13T09:34:00.088Z,9.38
2023-01-13T09:35:00.134Z,9.41
2023-01-13T09:36:00.099Z,9.44
2023-01-13T09:37:00.080Z,9.44
2023-01-13T09:37:59.997Z,9.48
2023-01-13T09:39:00.071Z,9.49
2023-01-13T09:39:59.977Z,9.52
2023-01-13T09:41:00.093Z,9.52
2023-01-13T09:41:59.989Z,9.53
2023-01-13T09:42:59.973Z,9.53
2023-01-13T09:44:08.613Z,9.56
2023-01-13T09:44:59.958Z,9.56
2023-01-13T09:46:00.020Z,9.58
2023-01-13T09:46:59.923Z,9.59
2023-01-13T09:47:59.914Z,9.59
2023-01-13T09:48:59.915Z,9.59
2023-01-13T09:49:59.837Z,9.58
2023-01-13T09:50:59.932Z,9.59
2023-01-13T09:51:59.840Z,9.59
2023-01-13T09:52:59.821Z,9.60
2023-01-13T09:53:59.819Z,9.58
2023-01-13T09:54:59.795Z,9.59
2023-01-13T09:55:59.777Z,9.58
2023-01-13T09:56:59.804Z,9.60
2023-01-13T09:57:59.745Z,9.60
2023-01-13T09:58:59.749Z,9.62
2023-01-13T09:59:59.792Z,9.63
2023-01-13T10:00:59.761Z,9.65
2023-01-13T10:01:59.729Z,9.67
2023-01-13T10:02:59.711Z,9.67
2023-01-13T10:03:59.667Z,9.70
2023-01-13T10:04:59.717Z,9.68
2023-01-13T10:05:59.671Z,9.67
2023-01-13T10:06:59.665Z,9.68
2023-01-13T10:07:59.639Z,9.68
2023-01-13T10:08:59.635Z,9.68
2023-01-13T10:09:59.611Z,9.68
2023-01-13T10:10:59.600Z,9.67
2023-01-13T10:11:59.589Z,9.65
2023-01-13T10:12:59.573Z,9.65
2023-01-13T10:13:59.556Z,9.67
2023-01-13T10:14:59.552Z,9.71
2023-01-13T10:16:02.764Z,9.74
2023-01-13T10:16:59.521Z,9.74
2023-01-13T10:17:59.555Z,9.77
2023-01-13T10:18:59.461Z,9.78
2023-01-13T10:19:59.499Z,9.78
2023-01-13T10:20:59.492Z,9.81
2023-01-13T10:21:59.551Z,9.85
2023-01-13T10:22:59.436Z,9.88
2023-01-13T10:23:59.420Z,9.89
2023-01-13T10:24:59.393Z,9.89
2023-01-13T10:25:59.404Z,9.89
2023-01-13T10:26:59.416Z,9.91
2023-01-13T10:27:59.398Z,9.91
2023-01-13T10:28:59.337Z,9.92
2023-01-13T10:29:59.335Z,9.93
2023-01-13T10:30:59.377Z,9.96
2023-01-13T10:31:59.346Z,9.96
2023-01-13T10:32:59.302Z,9.96
2023-01-13T10:33:59.289Z,9.96
2023-01-13T10:34:59.285Z,9.96
2023-01-13T10:35:59.292Z,9.96
2023-01-13T10:36:59.267Z,9.96
2023-01-13T10:37:59.336Z,9.96
2023-01-13T10:38:59.236Z,10.01
2023-01-13T10:39:59.210Z,10.02
2023-01-13T10:40:59.257Z,10.02
2023-01-13T10:41:59.206Z,10.02
2023-01-13T10:42:59.157Z,10.02
2023-01-13T10:43:59.204Z,10.04
2023-01-13T10:44:59.131Z,10.04
2023-01-13T10:45:59.157Z,10.04
2023-01-13T10:46:59.133Z,10.06
2023-01-13T10:47:59.134Z,10.02
2023-01-13T10:48:59.108Z,10.02
2023-01-13T10:49:59.078Z,10.02
2023-01-13T10:50:59.074Z,9.99
2023-01-13T10:51:59.197Z,10.01
2023-01-13T10:52:59.143Z,10.01
2023-01-13T10:53:59.068Z,9.99
2023-01-13T10:54:59.018Z,9.98
2023-01-13T10:55:59.055Z,9.99
2023-01-13T10:56:58.986Z,9.99
2023-01-13T10:57:59.003Z,9.98
2023-01-13T10:58:58.947Z,9.98
2023-01-13T10:59:58.964Z,9.96
2023-01-13T11:00:59.002Z,9.95
2023-01-13T11:01:58.961Z,9.95
2023-01-13T11:02:58.903Z,9.95
2023-01-13T11:03:58.928Z,9.96
2023-01-13T11:04:58.912Z,9.96
2023-01-13T11:05:58.884Z,9.96
2023-01-13T11:06:58.876Z,9.98
2023-01-13T11:07:58.869Z,10.01
2023-01-13T11:08:58.853Z,10.02
2023-01-13T11:09:58.822Z,10.06
2023-01-13T11:10:58.807Z,10.09
2023-01-13T11:11:58.796Z,10.09
2023-01-13T11:12:58.768Z,10.11
2023-01-13T11:13:58.807Z,10.14
2023-01-13T11:14:58.744Z,10.16
2023-01-13T11:15:58.805Z,10.18
2023-01-13T11:16:58.733Z,10.22
2023-01-13T11:17:58.723Z,10.24
2023-01-13T11:18:58.810Z,10.28
2023-01-13T11:19:58.695Z,10.29
2023-01-13T11:20:58.732Z,10.31
2023-01-13T11:21:58.697Z,10.34
2023-01-13T11:22:58.668Z,10.34
2023-01-13T11:23:58.642Z,10.35
2023-01-13T11:24:58.660Z,10.35
2023-01-13T11:25:58.659Z,10.34
2023-01-13T11:26:58.592Z,10.32
2023-01-13T11:27:58.626Z,10.32
2023-01-13T11:28:58.559Z,10.29
2023-01-13T11:29:58.572Z,10.25
2023-01-13T11:30:58.634Z,10.25
2023-01-13T11:31:58.540Z,10.24
2023-01-13T11:32:58.522Z,10.25
2023-01-13T11:33:58.549Z,10.25
2023-01-13T11:34:58.511Z,10.22
2023-01-13T11:35:58.504Z,10.24
2023-01-13T11:36:58.465Z,10.24
2023-01-13T11:37:58.492Z,10.22
2023-01-13T11:38:58.466Z,10.22
2023-01-13T11:39:58.478Z,10.22
2023-01-13T11:40:58.439Z,10.20
2023-01-13T11:41:58.439Z,10.22
2023-01-13T11:42:58.412Z,10.24
2023-01-13T11:43:58.414Z,10.25
2023-01-13T11:44:58.396Z,10.26
2023-01-13T11:45:58.396Z,10.24
2023-01-13T11:46:58.391Z,10.25
2023-01-13T11:47:58.360Z,10.24
2023-01-13T11:48:58.339Z,10.24
2023-01-13T11:49:58.350Z,10.22
2023-01-13T11:50:58.313Z,10.22
2023-01-13T11:51:58.289Z,10.18
2023-01-13T11:52:58.287Z,10.18
2023-01-13T11:53:58.256Z,10.14
2023-01-13T11:54:58.253Z,10.11
2023-01-13T11:55:58.267Z,10.10
2023-01-13T11:56:58.232Z,10.09
2023-01-13T11:57:58.287Z,10.09
2023-01-13T11:58:58.203Z,10.10
2023-01-13T11:59:58.178Z,10.10
2023-01-13T12:00:58.219Z,10.11
2023-01-13T12:01:58.254Z,10.13
2023-01-13T12:02:58.220Z,10.14
2023-01-13T12:03:58.126Z,10.13
2023-01-13T12:04:58.126Z,10.13
2023-01-13T12:05:58.146Z,10.13
2023-01-13T12:06:58.309Z,10.10
2023-01-13T12:07:58.077Z,10.11
2023-01-13T12:08:58.069Z,10.11
2023-01-13T12:09:58.076Z,10.07
2023-01-13T12:10:58.087Z,10.06
2023-01-13T12:11:58.062Z,10.06
2023-01-13T12:13:00.134Z,10.06
2023-01-13T12:13:58.047Z,10.10
2023-01-13T12:14:58.155Z,10.14
2023-01-13T12:15:59.505Z,10.14
2023-01-13T12:17:00.346Z,10.14
2023-01-13T12:17:57.970Z,10.16
2023-01-13T12:18:57.946Z,10.16
2023-01-13T12:19:57.937Z,10.16
2023-01-13T12:20:57.930Z,10.17
2023-01-13T12:21:57.925Z,10.18
2023-01-13T12:22:57.889Z,10.17
2023-01-13T12:23:57.873Z,10.17
2023-01-13T12:24:57.873Z,10.17
2023-01-13T12:25:57.854Z,10.18
2023-01-13T12:26:57.838Z,10.18
2023-01-13T12:27:57.842Z,10.17
2023-01-13T12:28:57.942Z,10.17
2023-01-13T12:29:57.789Z,10.17
2023-01-13T12:30:57.890Z,10.17
2023-01-13T12:31:57.899Z,10.18
2023-01-13T12:32:57.776Z,10.18
2023-01-13T12:33:57.786Z,10.20
2023-01-13T12:34:57.728Z,10.22
2023-01-13T12:35:57.731Z,10.22
2023-01-13T12:36:57.769Z,10.20
2023-01-13T12:37:57.722Z,10.22
2023-01-13T12:38:57.725Z,10.18
2023-01-13T12:39:57.725Z,10.17
2023-01-13T12:40:57.692Z,10.17
2023-01-13T12:41:57.659Z,10.20
2023-01-13T12:42:57.620Z,10.24
2023-01-13T12:43:57.628Z,10.24
2023-01-13T12:44:57.597Z,10.24
2023-01-13T12:45:57.659Z,10.24
2023-01-13T12:46:57.610Z,10.25
2023-01-13T12:47:57.566Z,10.26
2023-01-13T12:48:57.637Z,10.24
2023-01-13T12:49:57.576Z,10.16
2023-01-13T12:50:57.529Z,10.07
2023-01-13T12:51:57.554Z,10.06
2023-01-13T12:52:57.516Z,10.01
2023-01-13T12:53:57.579Z,9.98
2023-01-13T12:54:57.475Z,9.95
2023-01-13T12:55:57.565Z,9.92
2023-01-13T12:56:57.474Z,9.91
2023-01-13T12:57:57.459Z,9.86
2023-01-13T12:59:08.897Z,9.77
2023-01-13T12:59:57.403Z,9.71
2023-01-13T13:00:57.483Z,9.60
2023-01-13T13:01:57.487Z,9.52
2023-01-13T13:02:57.424Z,9.48
2023-01-13T13:03:57.347Z,9.37
2023-01-13T13:04:57.361Z,9.34
2023-01-13T13:05:57.362Z,9.34
2023-01-13T13:06:57.323Z,9.34
2023-01-13T13:07:57.299Z,9.34
2023-01-13T13:08:57.298Z,9.35
2023-01-13T13:09:57.298Z,9.37